Time;durP1;ratioP1;P1;durP2;ratioP2;P2;SDS_P1;SDS_P2;PMS_P1;PMS_P2;Temp;Humidity;BMP_temperature;BMP_pressure;BME280_temperature;BME280_humidity;BME280_pressure;Samples;Min_cycle;Max_cycle;Signal;HPM_P1;HPM_P2
2023/03/24 00:01:55;;;;;;;4.70;4.20;;;;;;;;;;5075559;28;20805;-78
2023/03/24 00:04:22;;;;;;;4.55;4.15;;;;;;;;;;5075049;28;20462;-80
2023/03/24 00:06:48;;;;;;;4.30;3.90;;;;;;;;;;5073370;28;20407;-79
2023/03/24 00:09:15;;;;;;;3.78;3.42;;;;;;;;;;5075371;28;20428;-79
2023/03/24 00:11:41;;;;;;;3.73;3.30;;;;;;;;;;5075279;28;20387;-79
2023/03/24 00:14:10;;;;;;;5.25;3.42;;;;;;;;;;5073983;28;20371;-79
2023/03/24 00:16:37;;;;;;;6.60;3.50;;;;;;;;;;5072773;28;20375;-80
2023/03/24 00:19:03;;;;;;;3.30;2.97;;;;;;;;;;5074972;28;20382;-79
2023/03/24 00:21:29;;;;;;;4.13;3.38;;;;;;;;;;5073526;28;20383;-80
2023/03/24 00:23:57;;;;;;;3.92;3.55;;;;;;;;;;5074701;28;20387;-80
2023/03/24 00:26:24;;;;;;;4.22;3.55;;;;;;;;;;5057059;28;20403;-78
2023/03/24 00:28:50;;;;;;;4.03;3.60;;;;;;;;;;5074842;28;20384;-79
2023/03/24 00:31:17;;;;;;;5.43;4.10;;;;;;;;;;5074719;28;20414;-79
2023/03/24 00:33:49;;;;;;;4.60;4.20;;;;;;;;;;5074506;28;20760;-79
2023/03/24 00:36:15;;;;;;;4.50;4.10;;;;;;;;;;5074834;28;20775;-80
2023/03/24 00:38:42;;;;;;;4.55;4.18;;;;;;;;;;5074802;28;20384;-80
2023/03/24 00:41:09;;;;;;;4.88;4.47;;;;;;;;;;5074390;28;20380;-80
2023/03/24 00:43:36;;;;;;;4.50;4.10;;;;;;;;;;5074682;28;20474;-78
2023/03/24 00:46:04;;;;;;;4.60;4.20;;;;;;;;;;5074400;28;20443;-79
2023/03/24 00:48:30;;;;;;;5.05;3.95;;;;;;;;;;5074452;28;20376;-79
2023/03/24 00:50:56;;;;;;;4.57;4.17;;;;;;;;;;5074567;28;20380;-79
2023/03/24 00:53:24;;;;;;;5.00;4.50;;;;;;;;;;5074143;28;20390;-79
2023/03/24 00:55:50;;;;;;;4.20;3.88;;;;;;;;;;5074491;28;20745;-79
2023/03/24 00:58:18;;;;;;;4.32;3.95;;;;;;;;;;5074225;28;20872;-80
2023/03/24 01:00:45;;;;;;;4.30;3.97;;;;;;;;;;5073937;28;20883;-79
2023/03/24 01:03:11;;;;;;;4.47;4.07;;;;;;;;;;5072504;28;20406;-79
2023/03/24 01:05:37;;;;;;;4.40;4.00;;;;;;;;;;5074131;28;20406;-79
2023/03/24 01:08:05;;;;;;;4.88;4.38;;;;;;;;;;5074316;28;20379;-79
2023/03/24 01:10:32;;;;;;;4.82;4.43;;;;;;;;;;5074066;28;20402;-79
2023/03/24 01:12:59;;;;;;;4.97;4.47;;;;;;;;;;5074043;28;20402;-79
2023/03/24 01:15:28;;;;;;;4.85;4.35;;;;;;;;;;5073887;28;20438;-79
2023/03/24 01:17:54;;;;;;;4.50;4.10;;;;;;;;;;5073997;28;20410;-79
2023/03/24 01:20:21;;;;;;;4.82;4.43;;;;;;;;;;5070162;28;20372;-79
2023/03/24 01:22:48;;;;;;;4.80;4.30;;;;;;;;;;5073961;28;20853;-80
2023/03/24 01:25:17;;;;;;;4.05;3.75;;;;;;;;;;5073676;28;20379;-78
2023/03/24 01:27:44;;;;;;;4.30;4.00;;;;;;;;;;5073860;28;20372;-78
2023/03/24 01:30:12;;;;;;;5.00;4.50;;;;;;;;;;5073732;28;20391;-79
2023/03/24 01:32:39;;;;;;;5.03;4.53;;;;;;;;;;5073261;28;20396;-78
2023/03/24 01:35:05;;;;;;;5.60;5.00;;;;;;;;;;5055777;28;20486;-79
2023/03/24 01:37:31;;;;;;;6.10;5.28;;;;;;;;;;5073551;28;20578;-79
2023/03/24 01:39:57;;;;;;;5.38;4.97;;;;;;;;;;5073454;28;20387;-79
2023/03/24 01:42:24;;;;;;;5.30;4.80;;;;;;;;;;5073613;28;20599;-79
2023/03/24 01:44:51;;;;;;;5.70;5.20;;;;;;;;;;5073467;28;20423;-79
2023/03/24 01:47:17;;;;;;;5.07;4.57;;;;;;;;;;5072993;28;20403;-79
2023/03/24 01:49:50;;;;;;;5.05;4.57;;;;;;;;;;5073474;28;20411;-78
2023/03/24 01:52:19;;;;;;;5.55;4.95;;;;;;;;;;5073291;28;20391;-79
2023/03/24 01:54:47;;;;;;;5.37;4.97;;;;;;;;;;5067798;28;20368;-79
2023/03/24 01:57:36;;;;;;;5.57;5.07;;;;;;;;;;5071619;28;20371;-80
2023/03/24 02:00:06;;;;;;;5.40;4.90;;;;;;;;;;5069213;28;20391;-80
2023/03/24 02:02:35;;;;;;;5.63;5.13;;;;;;;;;;5073072;28;20733;-79
2023/03/24 02:05:06;;;;;;;5.28;4.85;;;;;;;;;;5068224;28;20379;-79
2023/03/24 02:07:38;;;;;;;5.20;4.70;;;;;;;;;;5072931;28;20448;-80
2023/03/24 02:10:06;;;;;;;5.03;4.53;;;;;;;;;;5072765;28;20909;-79
2023/03/24 02:12:32;;;;;;;6.25;5.00;;;;;;;;;;5068785;28;20376;-80
2023/03/24 02:14:58;;;;;;;5.90;5.38;;;;;;;;;;5072769;28;20384;-80
2023/03/24 02:17:32;;;;;;;5.30;4.80;;;;;;;;;;5072817;28;20381;-80
2023/03/24 02:20:21;;;;;;;5.07;4.57;;;;;;;;;;5072605;28;20470;-80
2023/03/24 02:22:47;;;;;;;5.10;4.60;;;;;;;;;;5061983;28;20381;-80
2023/03/24 02:25:32;;;;;;;5.90;4.83;;;;;;;;;;5072688;28;20383;-80
2023/03/24 02:27:58;;;;;;;4.63;4.20;;;;;;;;;;5060253;28;20384;-80
2023/03/24 02:30:30;;;;;;;4.88;4.47;;;;;;;;;;5068828;28;20379;-78
2023/03/24 02:33:24;;;;;;;5.05;4.47;;;;;;;;;;5072054;28;20415;-79
2023/03/24 02:36:10;;;;;;;5.00;4.60;;;;;;;;;;5072797;28;20466;-79
2023/03/24 02:38:49;;;;;;;5.13;4.73;;;;;;;;;;5064987;28;20471;-79
2023/03/24 02:41:31;;;;;;;5.43;4.90;;;;;;;;;;5076402;28;20402;-78
2023/03/24 02:44:17;;;;;;;4.87;4.47;;;;;;;;;;5082773;28;20384;-79
2023/03/24 02:46:50;;;;;;;4.90;4.50;;;;;;;;;;5073567;28;20403;-79
2023/03/24 02:49:16;;;;;;;4.72;4.32;;;;;;;;;;5080452;28;20366;-79
2023/03/24 02:51:51;;;;;;;4.87;4.43;;;;;;;;;;5089873;28;20378;-79
2023/03/24 02:54:36;;;;;;;5.88;4.78;;;;;;;;;;5072644;28;20506;-79
2023/03/24 02:57:25;;;;;;;4.70;4.30;;;;;;;;;;5072420;28;20397;-79
2023/03/24 03:00:15;;;;;;;5.55;5.03;;;;;;;;;;5066798;28;20388;-79
2023/03/24 03:02:45;;;;;;;4.80;4.40;;;;;;;;;;5072459;28;20380;-79
2023/03/24 03:05:16;;;;;;;4.85;4.35;;;;;;;;;;5072165;28;20388;-78
2023/03/24 03:07:43;;;;;;;6.47;5.80;;;;;;;;;;5072287;28;20437;-78
2023/03/24 03:10:17;;;;;;;7.78;6.97;;;;;;;;;;5070544;28;20416;-78
2023/03/24 03:12:46;;;;;;;8.75;7.63;;;;;;;;;;5089898;28;20381;-78
2023/03/24 03:15:17;;;;;;;6.38;5.78;;;;;;;;;;5092232;28;20410;-78
2023/03/24 03:17:49;;;;;;;6.37;5.73;;;;;;;;;;5064673;28;20379;-79
2023/03/24 03:20:20;;;;;;;6.47;5.80;;;;;;;;;;5089802;28;20388;-79
2023/03/24 03:22:48;;;;;;;6.70;6.10;;;;;;;;;;5065063;28;20392;-79
2023/03/24 03:25:16;;;;;;;6.60;6.00;;;;;;;;;;5064604;28;20372;-78
2023/03/24 03:27:45;;;;;;;10.70;8.55;;;;;;;;;;5070146;28;20382;-79
2023/03/24 03:30:32;;;;;;;13.68;9.70;;;;;;;;;;5071952;28;20377;-79
2023/03/24 03:33:04;;;;;;;7.55;6.85;;;;;;;;;;5063735;28;20403;-79
2023/03/24 03:35:35;;;;;;;6.68;6.07;;;;;;;;;;5071723;28;20702;-80
2023/03/24 03:38:13;;;;;;;6.38;5.78;;;;;;;;;;5070909;28;20433;-80
2023/03/24 03:40:39;;;;;;;5.90;5.40;;;;;;;;;;5071981;28;20499;-79
2023/03/24 03:43:05;;;;;;;5.72;5.22;;;;;;;;;;5071821;28;20826;-80
2023/03/24 03:45:33;;;;;;;6.32;5.70;;;;;;;;;;5064673;28;20537;-79
2023/03/24 03:47:59;;;;;;;6.00;5.50;;;;;;;;;;5071075;28;20384;-80
2023/03/24 03:50:27;;;;;;;6.97;6.38;;;;;;;;;;5070384;28;20415;-79
2023/03/24 03:52:53;;;;;;;6.07;5.47;;;;;;;;;;5070578;28;20452;-80
2023/03/24 03:55:19;;;;;;;5.93;5.32;;;;;;;;;;5067929;28;20376;-81
2023/03/24 03:57:46;;;;;;;6.45;5.85;;;;;;;;;;5070631;28;20459;-79
2023/03/24 04:00:15;;;;;;;6.13;5.63;;;;;;;;;;5070735;28;20449;-80
2023/03/24 04:02:47;;;;;;;6.18;5.68;;;;;;;;;;5070476;28;20429;-79
2023/03/24 04:05:18;;;;;;;7.25;6.60;;;;;;;;;;5070238;28;20396;-79
2023/03/24 04:07:56;;;;;;;6.80;6.20;;;;;;;;;;5070598;28;20376;-78
2023/03/24 04:10:29;;;;;;;7.90;7.20;;;;;;;;;;5070583;28;20462;-79
2023/03/24 04:13:07;;;;;;;7.07;6.38;;;;;;;;;;5060579;28;20737;-78
2023/03/24 04:15:33;;;;;;;7.53;6.45;;;;;;;;;;5070290;28;20844;-79
2023/03/24 04:18:11;;;;;;;7.40;6.70;;;;;;;;;;5070508;28;20387;-79
2023/03/24 04:21:01;;;;;;;7.60;7.00;;;;;;;;;;5066174;28;20386;-79
2023/03/24 04:23:39;;;;;;;6.47;5.97;;;;;;;;;;5060424;28;20384;-79
2023/03/24 04:26:14;;;;;;;6.90;6.20;;;;;;;;;;5070405;28;20403;-79
2023/03/24 04:28:40;;;;;;;6.70;6.10;;;;;;;;;;5070259;28;20376;-78
2023/03/24 04:31:15;;;;;;;6.40;5.80;;;;;;;;;;5070638;28;20880;-79
2023/03/24 04:33:41;;;;;;;8.50;7.70;;;;;;;;;;5069749;28;20404;-79
2023/03/24 04:36:15;;;;;;;8.05;7.35;;;;;;;;;;5067479;28;20389;-78
2023/03/24 04:38:44;;;;;;;7.28;6.68;;;;;;;;;;5049230;28;20492;-79
2023/03/24 04:41:11;;;;;;;7.68;6.97;;;;;;;;;;5072620;28;20799;-79
2023/03/24 04:43:37;;;;;;;8.68;7.88;;;;;;;;;;5073628;28;20383;-80
2023/03/24 04:46:04;;;;;;;8.52;6.90;;;;;;;;;;5069551;28;20400;-79
2023/03/24 04:48:30;;;;;;;7.32;6.72;;;;;;;;;;5072650;28;20384;-80
2023/03/24 04:50:58;;;;;;;8.25;7.45;;;;;;;;;;5092364;28;20431;-80
2023/03/24 04:53:24;;;;;;;7.15;6.50;;;;;;;;;;5091849;28;21203;-80
2023/03/24 04:55:50;;;;;;;8.23;7.38;;;;;;;;;;5078980;28;20454;-80
2023/03/24 04:58:17;;;;;;;9.20;8.40;;;;;;;;;;5063550;28;20389;-79
2023/03/24 05:00:43;;;;;;;8.30;7.60;;;;;;;;;;5065442;28;20418;-79
2023/03/24 05:03:13;;;;;;;8.27;7.50;;;;;;;;;;5074165;28;20384;-80
2023/03/24 05:05:49;;;;;;;7.85;7.15;;;;;;;;;;5073212;28;20407;-80
2023/03/24 05:08:19;;;;;;;7.70;7.00;;;;;;;;;;5074046;28;20376;-80
2023/03/24 05:10:45;;;;;;;7.50;6.80;;;;;;;;;;5073893;28;20389;-80
2023/03/24 05:13:12;;;;;;;7.30;6.70;;;;;;;;;;5074315;28;20447;-80
2023/03/24 05:15:38;;;;;;;8.63;7.82;;;;;;;;;;5074043;28;20444;-80
2023/03/24 05:18:05;;;;;;;8.93;8.13;;;;;;;;;;5074471;28;20391;-80
2023/03/24 05:20:31;;;;;;;8.40;7.55;;;;;;;;;;5054276;28;20889;-80
2023/03/24 05:22:57;;;;;;;8.20;7.40;;;;;;;;;;5073992;28;20419;-79
2023/03/24 05:25:23;;;;;;;7.88;7.07;;;;;;;;;;5070364;28;20387;-79
2023/03/24 05:27:49;;;;;;;8.68;7.70;;;;;;;;;;5074016;28;20386;-79
2023/03/24 05:30:16;;;;;;;8.02;7.28;;;;;;;;;;5073938;28;20376;-79
2023/03/24 05:32:42;;;;;;;8.00;7.30;;;;;;;;;;5073526;28;20423;-79
2023/03/24 05:35:08;;;;;;;7.85;7.10;;;;;;;;;;5073873;28;20388;-80
2023/03/24 05:37:34;;;;;;;7.95;6.85;;;;;;;;;;5073770;28;20380;-80
2023/03/24 05:40:00;;;;;;;8.07;7.38;;;;;;;;;;5073628;28;20387;-79
2023/03/24 05:42:26;;;;;;;7.37;6.67;;;;;;;;;;5073492;28;20391;-80
2023/03/24 05:44:52;;;;;;;7.78;7.07;;;;;;;;;;5071893;28;20383;-80
2023/03/24 05:47:19;;;;;;;7.90;7.10;;;;;;;;;;5072688;28;20482;-79
2023/03/24 05:49:47;;;;;;;7.53;6.82;;;;;;;;;;5081235;28;20366;-80
2023/03/24 05:52:19;;;;;;;7.65;6.95;;;;;;;;;;5078515;28;20370;-80
2023/03/24 05:54:45;;;;;;;7.72;6.95;;;;;;;;;;5093657;28;20369;-80
2023/03/24 05:57:12;;;;;;;7.25;6.55;;;;;;;;;;5075134;28;20380;-79
2023/03/24 05:59:38;;;;;;;7.45;6.82;;;;;;;;;;5073303;28;20418;-80
2023/03/24 06:02:04;;;;;;;7.03;6.32;;;;;;;;;;5073329;28;20398;-80
2023/03/24 06:04:30;;;;;;;5.97;5.47;;;;;;;;;;5075169;28;20387;-80
2023/03/24 06:07:01;;;;;;;6.28;5.78;;;;;;;;;;5072149;28;20404;-80
2023/03/24 06:09:28;;;;;;;6.32;5.82;;;;;;;;;;5068508;28;20747;-79
2023/03/24 06:11:55;;;;;;;6.03;5.53;;;;;;;;;;5066557;28;20377;-80
2023/03/24 06:14:21;;;;;;;6.53;5.93;;;;;;;;;;5070619;28;20907;-79
2023/03/24 06:16:48;;;;;;;6.15;5.60;;;;;;;;;;5064657;28;20387;-79
2023/03/24 06:19:15;;;;;;;5.80;5.40;;;;;;;;;;5056009;28;20453;-79
2023/03/24 06:21:43;;;;;;;5.68;5.18;;;;;;;;;;5063791;28;20396;-80
2023/03/24 06:24:09;;;;;;;4.88;4.47;;;;;;;;;;5054817;28;20849;-80
2023/03/24 06:26:35;;;;;;;5.75;5.18;;;;;;;;;;5053328;28;20405;-80
2023/03/24 06:29:01;;;;;;;5.10;4.60;;;;;;;;;;5068404;28;20464;-81
2023/03/24 06:31:29;;;;;;;5.93;5.30;;;;;;;;;;5070637;28;20467;-80
2023/03/24 06:33:55;;;;;;;5.43;4.97;;;;;;;;;;5068807;28;20458;-80
2023/03/24 06:36:22;;;;;;;4.93;4.53;;;;;;;;;;5072302;28;20375;-80
2023/03/24 06:38:48;;;;;;;5.53;5.03;;;;;;;;;;5072217;28;20372;-80
2023/03/24 06:41:15;;;;;;;6.32;5.72;;;;;;;;;;5071307;28;20903;-80
2023/03/24 06:43:41;;;;;;;7.30;6.55;;;;;;;;;;5071568;28;20384;-80
2023/03/24 06:46:08;;;;;;;6.57;6.07;;;;;;;;;;5071852;28;20516;-81
2023/03/24 06:48:35;;;;;;;6.47;5.90;;;;;;;;;;5072039;28;20410;-80
2023/03/24 06:51:01;;;;;;;7.00;6.40;;;;;;;;;;5091876;28;20377;-80
2023/03/24 06:53:27;;;;;;;7.30;6.60;;;;;;;;;;5091954;28;20370;-80
2023/03/24 06:55:53;;;;;;;6.57;5.97;;;;;;;;;;5091956;28;20430;-80
2023/03/24 06:58:19;;;;;;;7.45;5.97;;;;;;;;;;5074635;28;20416;-80
2023/03/24 07:00:45;;;;;;;6.50;6.00;;;;;;;;;;5071395;28;20380;-80
2023/03/24 07:03:12;;;;;;;6.22;5.72;;;;;;;;;;5071857;28;20915;-80
2023/03/24 07:05:42;;;;;;;6.40;5.90;;;;;;;;;;5071922;28;20387;-80
2023/03/24 07:08:09;;;;;;;6.85;6.25;;;;;;;;;;5072352;28;20433;-80
2023/03/24 07:10:35;;;;;;;6.40;5.90;;;;;;;;;;5071932;28;20376;-80
2023/03/24 07:13:02;;;;;;;6.00;5.50;;;;;;;;;;5063178;28;20406;-79
2023/03/24 07:15:28;;;;;;;7.43;6.50;;;;;;;;;;5072251;28;20437;-79
2023/03/24 07:17:54;;;;;;;6.22;5.72;;;;;;;;;;5072075;28;20706;-79
2023/03/24 07:20:21;;;;;;;6.50;5.90;;;;;;;;;;5072000;28;20376;-79
2023/03/24 07:22:47;;;;;;;6.45;5.85;;;;;;;;;;5068591;28;20735;-79
2023/03/24 07:25:13;;;;;;;5.85;5.32;;;;;;;;;;5070660;28;20375;-79
2023/03/24 07:27:40;;;;;;;5.72;5.22;;;;;;;;;;5070668;28;20422;-78
2023/03/24 07:30:08;;;;;;;5.70;5.30;;;;;;;;;;5071841;28;20383;-78
2023/03/24 07:32:37;;;;;;;5.95;5.45;;;;;;;;;;5070763;28;20458;-79
2023/03/24 07:35:04;;;;;;;5.57;5.07;;;;;;;;;;5071428;28;20745;-78
2023/03/24 07:37:30;;;;;;;6.00;5.50;;;;;;;;;;5071714;28;20861;-78
2023/03/24 07:39:56;;;;;;;6.43;5.72;;;;;;;;;;5071876;28;20388;-79
2023/03/24 07:42:22;;;;;;;6.18;5.68;;;;;;;;;;5071707;28;20792;-79
2023/03/24 07:44:48;;;;;;;6.57;5.97;;;;;;;;;;5060904;28;20390;-78
2023/03/24 07:47:14;;;;;;;6.00;5.55;;;;;;;;;;5071557;28;20400;-79
2023/03/24 07:49:40;;;;;;;6.20;5.63;;;;;;;;;;5071348;28;20368;-79
2023/03/24 07:52:06;;;;;;;6.60;5.85;;;;;;;;;;5071695;28;20795;-79
2023/03/24 07:54:35;;;;;;;6.20;5.72;;;;;;;;;;5071754;28;20466;-80
2023/03/24 07:57:01;;;;;;;6.13;5.63;;;;;;;;;;5071241;28;20467;-79
2023/03/24 07:59:27;;;;;;;6.10;5.60;;;;;;;;;;5071770;28;20853;-80
2023/03/24 08:01:53;;;;;;;6.32;5.72;;;;;;;;;;5071568;28;20891;-79
2023/03/24 08:04:19;;;;;;;6.35;5.80;;;;;;;;;;5048204;28;20883;-80
2023/03/24 08:06:46;;;;;;;5.85;5.35;;;;;;;;;;5068038;28;20403;-79
2023/03/24 08:09:13;;;;;;;6.07;5.47;;;;;;;;;;5070826;28;20380;-80
2023/03/24 08:11:39;;;;;;;6.57;5.90;;;;;;;;;;5072036;28;20376;-82
2023/03/24 08:14:06;;;;;;;6.55;5.97;;;;;;;;;;5073941;28;20380;-80
2023/03/24 08:16:32;;;;;;;6.80;6.20;;;;;;;;;;5073852;28;20517;-81
2023/03/24 08:18:58;;;;;;;7.68;6.97;;;;;;;;;;5073440;28;20395;-80
2023/03/24 08:21:24;;;;;;;7.50;6.55;;;;;;;;;;5071567;28;20404;-80
2023/03/24 08:23:51;;;;;;;6.90;6.20;;;;;;;;;;5070008;28;20714;-80
2023/03/24 08:26:17;;;;;;;7.03;6.47;;;;;;;;;;5074186;28;20437;-82
2023/03/24 08:28:43;;;;;;;6.35;5.85;;;;;;;;;;5074537;28;20376;-79
2023/03/24 08:31:09;;;;;;;6.80;6.15;;;;;;;;;;5074379;28;20445;-85
2023/03/24 08:33:36;;;;;;;7.13;6.47;;;;;;;;;;5074771;28;20445;-80
2023/03/24 08:36:02;;;;;;;6.80;6.20;;;;;;;;;;5074845;28;20388;-81
2023/03/24 08:38:31;;;;;;;6.78;6.28;;;;;;;;;;5074608;28;20417;-80
2023/03/24 08:41:00;;;;;;;7.23;6.63;;;;;;;;;;5081217;28;20399;-79
2023/03/24 08:43:27;;;;;;;7.32;6.32;;;;;;;;;;5074275;28;20386;-80
2023/03/24 08:45:53;;;;;;;6.40;5.80;;;;;;;;;;5074041;28;20415;-79
2023/03/24 08:48:20;;;;;;;6.40;5.90;;;;;;;;;;5074144;28;20376;-80
2023/03/24 08:50:46;;;;;;;6.00;5.50;;;;;;;;;;5074689;28;20494;-78
2023/03/24 08:53:12;;;;;;;5.78;5.18;;;;;;;;;;5074441;28;20785;-78
2023/03/24 08:55:40;;;;;;;6.25;5.68;;;;;;;;;;5074535;28;20368;-79
2023/03/24 08:58:07;;;;;;;6.15;5.55;;;;;;;;;;5073453;28;20387;-80
2023/03/24 09:00:33;;;;;;;6.10;5.60;;;;;;;;;;5074421;28;20459;-78
2023/03/24 09:02:59;;;;;;;6.38;5.88;;;;;;;;;;5074408;28;20458;-81
2023/03/24 09:05:26;;;;;;;6.10;5.70;;;;;;;;;;5074458;28;20419;-79
2023/03/24 09:07:52;;;;;;;5.97;5.50;;;;;;;;;;5074398;28;20391;-79
2023/03/24 09:10:19;;;;;;;5.72;5.22;;;;;;;;;;5074322;28;20748;-78
2023/03/24 09:12:45;;;;;;;6.33;5.73;;;;;;;;;;5074137;28;20846;-79
2023/03/24 09:15:12;;;;;;;5.75;5.25;;;;;;;;;;5063059;28;20390;-79
2023/03/24 09:17:39;;;;;;;5.72;5.22;;;;;;;;;;5073440;28;20383;-79
2023/03/24 09:20:07;;;;;;;6.30;5.80;;;;;;;;;;5074023;28;20395;-78
2023/03/24 09:22:36;;;;;;;5.97;5.53;;;;;;;;;;5073898;28;20467;-80
2023/03/24 09:25:02;;;;;;;5.90;5.47;;;;;;;;;;5074855;28;20384;-79
2023/03/24 09:27:28;;;;;;;6.03;5.45;;;;;;;;;;5074418;28;20408;-78
2023/03/24 09:29:54;;;;;;;4.80;4.33;;;;;;;;;;5074767;28;20413;-78
2023/03/24 09:32:20;;;;;;;5.55;5.03;;;;;;;;;;5074461;28;20430;-78
2023/03/24 09:34:46;;;;;;;4.03;3.72;;;;;;;;;;5075217;28;20387;-78
2023/03/24 09:37:13;;;;;;;5.10;4.60;;;;;;;;;;5072464;28;20465;-79
2023/03/24 09:39:39;;;;;;;4.18;3.80;;;;;;;;;;5089414;28;20380;-78
2023/03/24 09:42:07;;;;;;;3.90;3.60;;;;;;;;;;5073324;28;20388;-79
2023/03/24 09:44:36;;;;;;;4.05;3.65;;;;;;;;;;5069135;28;20428;-80
2023/03/24 09:47:02;;;;;;;4.25;3.50;;;;;;;;;;5071170;28;20473;-79
2023/03/24 09:49:30;;;;;;;3.53;3.22;;;;;;;;;;5073138;28;20379;-80
2023/03/24 09:52:06;;;;;;;3.70;3.40;;;;;;;;;;5073609;28;20859;-79
2023/03/24 09:54:41;;;;;;;3.70;3.40;;;;;;;;;;5071022;28;20376;-79
2023/03/24 09:57:20;;;;;;;4.07;3.63;;;;;;;;;;5073512;28;20471;-80
2023/03/24 09:59:46;;;;;;;3.47;3.17;;;;;;;;;;5075503;28;20368;-81
2023/03/24 10:02:13;;;;;;;3.33;3.03;;;;;;;;;;5072572;28;20384;-80
2023/03/24 10:04:39;;;;;;;3.20;2.90;;;;;;;;;;5072718;28;20388;-79
2023/03/24 10:07:14;;;;;;;3.50;3.20;;;;;;;;;;5072056;28;20407;-79
2023/03/24 10:09:40;;;;;;;2.92;2.72;;;;;;;;;;5054259;28;20398;-79
2023/03/24 10:12:12;;;;;;;2.37;2.10;;;;;;;;;;5071348;28;20380;-79
2023/03/24 10:14:38;;;;;;;2.40;2.20;;;;;;;;;;5070099;28;20514;-79
2023/03/24 10:17:23;;;;;;;2.95;2.42;;;;;;;;;;5071735;28;20487;-82
2023/03/24 10:19:51;;;;;;;2.40;2.15;;;;;;;;;;5062422;28;20384;-81
2023/03/24 10:22:30;;;;;;;2.47;2.28;;;;;;;;;;5071938;28;20383;-79
2023/03/24 10:25:03;;;;;;;2.60;2.40;;;;;;;;;;5091590;28;20382;-80
2023/03/24 10:27:43;;;;;;;2.60;2.40;;;;;;;;;;5076894;28;20404;-80
2023/03/24 10:30:16;;;;;;;3.08;2.33;;;;;;;;;;5071548;28;20392;-79
2023/03/24 10:32:42;;;;;;;3.27;2.97;;;;;;;;;;5071535;28;20451;-84
2023/03/24 10:35:14;;;;;;;2.92;2.42;;;;;;;;;;5071175;28;20411;-84
2023/03/24 10:37:40;;;;;;;2.53;2.33;;;;;;;;;;5071771;28;20368;-84
2023/03/24 10:40:17;;;;;;;2.43;2.23;;;;;;;;;;5071456;28;20736;-87
2023/03/24 10:42:44;;;;;;;3.20;2.90;;;;;;;;;;5052895;28;20825;-84
2023/03/24 10:45:30;;;;;;;3.08;2.78;;;;;;;;;;5071556;28;20414;-84
2023/03/24 10:47:58;;;;;;;2.97;2.67;;;;;;;;;;5079884;28;20390;-84
2023/03/24 10:50:27;;;;;;;2.63;2.42;;;;;;;;;;5071281;28;20513;-83
2023/03/24 10:52:54;;;;;;;3.15;2.65;;;;;;;;;;5066790;28;20367;-84
2023/03/24 10:55:22;;;;;;;3.10;2.72;;;;;;;;;;5068611;28;20376;-85
2023/03/24 10:57:50;;;;;;;3.53;3.20;;;;;;;;;;5051054;28;20392;-85
2023/03/24 11:00:25;;;;;;;3.20;2.90;;;;;;;;;;5071332;28;20416;-84
2023/03/24 11:03:11;;;;;;;3.60;3.30;;;;;;;;;;5057474;28;20420;-84
2023/03/24 11:05:39;;;;;;;3.55;3.25;;;;;;;;;;5071160;28;20849;-85
2023/03/24 11:08:17;;;;;;;2.72;2.53;;;;;;;;;;5071447;28;20379;-84
2023/03/24 11:10:43;;;;;;;2.78;2.22;;;;;;;;;;5068011;28;20364;-84
2023/03/24 11:13:17;;;;;;;2.10;1.83;;;;;;;;;;5071323;28;20464;-84
2023/03/24 11:15:52;;;;;;;1.80;1.70;;;;;;;;;;5060937;28;20371;-84
2023/03/24 11:18:19;;;;;;;3.33;1.77;;;;;;;;;;5072158;28;20860;-84
2023/03/24 11:20:47;;;;;;;1.90;1.50;;;;;;;;;;5071342;28;20437;-85
2023/03/24 11:23:31;;;;;;;2.42;1.70;;;;;;;;;;5071253;28;20487;-85
2023/03/24 11:26:08;;;;;;;1.63;1.20;;;;;;;;;;5071274;28;20407;-85
2023/03/24 11:28:39;;;;;;;1.70;1.50;;;;;;;;;;5071086;28;20934;-84
2023/03/24 11:31:07;;;;;;;1.67;1.58;;;;;;;;;;5069844;28;20408;-84
2023/03/24 11:33:35;;;;;;;1.60;1.48;;;;;;;;;;5071032;28;20881;-85
2023/03/24 11:36:06;;;;;;;1.60;1.50;;;;;;;;;;5071016;28;20416;-85
2023/03/24 11:38:34;;;;;;;1.48;1.38;;;;;;;;;;5070097;28;20376;-84
2023/03/24 11:41:03;;;;;;;2.80;1.63;;;;;;;;;;5069407;28;20380;-85
2023/03/24 11:43:29;;;;;;;2.00;1.80;;;;;;;;;;5066858;28;20455;-85
2023/03/24 11:45:58;;;;;;;2.25;2.08;;;;;;;;;;5051913;28;20778;-84
2023/03/24 11:48:47;;;;;;;2.67;2.03;;;;;;;;;;5073924;28;20391;-86
2023/03/24 11:51:15;;;;;;;2.40;2.20;;;;;;;;;;5074831;28;20872;-85
2023/03/24 11:53:47;;;;;;;3.45;2.30;;;;;;;;;;5074898;28;20484;-85
2023/03/24 11:56:18;;;;;;;1.85;1.55;;;;;;;;;;5074933;28;20411;-86
2023/03/24 11:58:50;;;;;;;2.00;1.80;;;;;;;;;;5074965;28;20717;-85
2023/03/24 12:01:24;;;;;;;2.35;2.05;;;;;;;;;;5071690;28;20382;-86
2023/03/24 12:03:56;;;;;;;2.33;2.08;;;;;;;;;;5074718;28;20390;-86
2023/03/24 12:06:33;;;;;;;1.90;1.75;;;;;;;;;;5074503;28;20403;-85
2023/03/24 12:09:08;;;;;;;1.55;1.08;;;;;;;;;;5074668;28;21181;-85
2023/03/24 12:11:50;;;;;;;1.17;1.08;;;;;;;;;;5074530;28;20375;-86
2023/03/24 12:14:23;;;;;;;1.33;1.00;;;;;;;;;;5074575;28;20473;-85
2023/03/24 12:16:53;;;;;;;1.75;1.13;;;;;;;;;;5074458;28;20372;-85
2023/03/24 12:19:38;;;;;;;4.20;2.40;;;;;;;;;;5074496;28;20876;-86
2023/03/24 12:22:10;;;;;;;2.20;1.63;;;;;;;;;;5072879;28;20398;-86
2023/03/24 12:24:48;;;;;;;1.67;1.20;;;;;;;;;;5072840;28;20852;-85
2023/03/24 12:27:23;;;;;;;1.30;1.20;;;;;;;;;;5072746;28;20430;-85
2023/03/24 12:30:00;;;;;;;1.10;0.73;;;;;;;;;;5074321;28;20493;-86
2023/03/24 12:32:29;;;;;;;1.33;1.08;;;;;;;;;;5073936;28;20469;-85
2023/03/24 12:35:05;;;;;;;1.48;1.30;;;;;;;;;;5074262;28;20380;-85
2023/03/24 12:37:31;;;;;;;2.00;1.00;;;;;;;;;;5072996;28;20800;-86
2023/03/24 12:40:05;;;;;;;1.17;1.00;;;;;;;;;;5074168;28;20388;-85
2023/03/24 12:42:35;;;;;;;1.25;1.10;;;;;;;;;;5073914;28;20376;-86
2023/03/24 12:45:03;;;;;;;0.80;0.80;;;;;;;;;;5074029;28;20387;-86
2023/03/24 12:47:30;;;;;;;1.08;1.00;;;;;;;;;;5073775;28;20407;-86
2023/03/24 12:50:04;;;;;;;1.48;1.10;;;;;;;;;;5073952;28;20372;-85
2023/03/24 12:52:52;;;;;;;1.80;1.10;;;;;;;;;;5073954;28;20372;-85
2023/03/24 12:55:18;;;;;;;9.20;1.30;;;;;;;;;;5074149;28;20367;-86
2023/03/24 12:57:50;;;;;;;1.63;1.20;;;;;;;;;;5073266;28;20479;-86
2023/03/24 13:00:22;;;;;;;2.10;1.27;;;;;;;;;;5073849;28;20388;-86
2023/03/24 13:02:57;;;;;;;0.80;0.80;;;;;;;;;;5073589;28;20873;-86
2023/03/24 13:05:37;;;;;;;1.20;1.00;;;;;;;;;;5073685;28;20466;-86
2023/03/24 13:08:12;;;;;;;1.20;1.10;;;;;;;;;;5073666;28;20380;-86
2023/03/24 13:10:39;;;;;;;1.50;0.98;;;;;;;;;;5072416;28;20745;-85
2023/03/24 13:13:11;;;;;;;1.30;1.20;;;;;;;;;;5073403;28;20368;-86
2023/03/24 13:15:52;;;;;;;1.45;1.35;;;;;;;;;;5073643;28;20463;-86
2023/03/24 13:18:34;;;;;;;2.30;2.10;;;;;;;;;;5073376;28;20904;-85
2023/03/24 13:21:00;;;;;;;1.75;1.50;;;;;;;;;;5073134;28;20379;-86
2023/03/24 13:23:46;;;;;;;2.60;1.55;;;;;;;;;;5073215;28;20372;-85
2023/03/24 13:26:23;;;;;;;1.80;1.70;;;;;;;;;;5071961;28;20889;-86
2023/03/24 13:28:55;;;;;;;2.08;1.40;;;;;;;;;;5071995;28;20730;-85
2023/03/24 13:31:22;;;;;;;1.95;0.98;;;;;;;;;;5073341;28;20467;-86
2023/03/24 13:33:49;;;;;;;1.45;1.33;;;;;;;;;;5072760;28;20411;-85
2023/03/24 13:36:40;;;;;;;1.63;1.52;;;;;;;;;;5071549;28;20737;-85
2023/03/24 13:39:11;;;;;;;3.23;1.90;;;;;;;;;;5073112;28;20471;-85
2023/03/24 13:41:38;;;;;;;1.30;1.20;;;;;;;;;;5073158;28;20400;-85
2023/03/24 13:44:09;;;;;;;1.60;1.30;;;;;;;;;;5072825;28;20386;-86
2023/03/24 13:46:36;;;;;;;1.45;1.20;;;;;;;;;;5072976;28;20403;-85
2023/03/24 13:49:04;;;;;;;0.82;0.80;;;;;;;;;;5072948;28;20384;-85
2023/03/24 13:51:32;;;;;;;0.95;0.80;;;;;;;;;;5072885;28;20459;-85
2023/03/24 13:54:06;;;;;;;0.98;0.70;;;;;;;;;;5069655;28;20829;-85
2023/03/24 13:56:34;;;;;;;0.50;0.50;;;;;;;;;;5072683;28;20379;-84
2023/03/24 13:59:18;;;;;;;1.50;0.82;;;;;;;;;;5072593;28;20383;-85
2023/03/24 14:02:05;;;;;;;1.30;0.70;;;;;;;;;;5072488;28;20387;-84
2023/03/24 14:05:04;;;;;;;1.87;0.70;;;;;;;;;;5060601;28;20414;-84
2023/03/24 14:07:39;;;;;;;0.93;0.80;;;;;;;;;;5028322;28;20446;-84
2023/03/24 14:10:14;;;;;;;0.73;0.50;;;;;;;;;;5071456;28;20375;-84
2023/03/24 14:13:07;;;;;;;0.80;0.60;;;;;;;;;;5072277;28;20873;-85
2023/03/24 14:15:45;;;;;;;0.50;0.50;;;;;;;;;;5049206;28;20392;-85
2023/03/24 14:18:23;;;;;;;0.77;0.73;;;;;;;;;;5073150;28;20380;-85
2023/03/24 14:20:55;;;;;;;1.15;0.60;;;;;;;;;;5072257;28;20381;-83
2023/03/24 14:23:33;;;;;;;1.50;1.38;;;;;;;;;;5071300;28;20741;-85
2023/03/24 14:25:59;;;;;;;1.05;0.90;;;;;;;;;;5071980;28;20411;-84
2023/03/24 14:28:29;;;;;;;0.88;0.70;;;;;;;;;;5072040;28;20422;-85
2023/03/24 14:31:01;;;;;;;0.80;0.52;;;;;;;;;;5072074;28;20382;-84
2023/03/24 14:33:28;;;;;;;0.88;0.80;;;;;;;;;;5071676;28;20396;-84
2023/03/24 14:36:00;;;;;;;1.05;0.70;;;;;;;;;;5071978;28;20398;-84
2023/03/24 14:38:26;;;;;;;0.60;0.60;;;;;;;;;;5070380;28;20376;-84
2023/03/24 14:40:56;;;;;;;0.85;0.65;;;;;;;;;;5071838;28;20434;-84
2023/03/24 14:43:24;;;;;;;0.70;0.70;;;;;;;;;;5071726;28;20883;-84
2023/03/24 14:45:56;;;;;;;0.90;0.60;;;;;;;;;;5071554;28;20376;-84
2023/03/24 14:48:28;;;;;;;0.60;0.60;;;;;;;;;;5071790;28;20375;-84
2023/03/24 14:50:54;;;;;;;0.80;0.60;;;;;;;;;;5071616;28;20380;-83
2023/03/24 14:53:21;;;;;;;0.70;0.60;;;;;;;;;;5071467;28;20448;-84
2023/03/24 14:55:48;;;;;;;0.60;0.60;;;;;;;;;;5071526;28;20375;-84
2023/03/24 14:58:20;;;;;;;0.90;0.60;;;;;;;;;;5071650;28;20463;-84
2023/03/24 15:00:48;;;;;;;1.20;0.60;;;;;;;;;;5071386;28;20372;-84